createdAt,value
2017-04-15T00:00:02.138Z,38.10
2017-04-15T00:01:01.980Z,39.70
2017-04-15T00:02:01.075Z,35.67
2017-04-15T00:03:00.126Z,37.02
2017-04-15T00:03:59.210Z,34.98
2017-04-15T00:04:58.287Z,37.68
2017-04-15T00:05:58.240Z,39.57
2017-04-15T00:06:57.318Z,35.65
2017-04-15T00:07:56.402Z,38.02
2017-04-15T00:08:55.499Z,37.85
2017-04-15T00:09:54.604Z,37.57
2017-04-15T00:10:53.667Z,43.52
2017-04-15T00:11:52.750Z,41.33
2017-04-15T00:12:51.832Z,40.07
2017-04-15T00:13:50.898Z,42.23
2017-04-15T00:14:49.967Z,39.22
2017-04-15T00:15:49.035Z,40.75
2017-04-15T00:16:49.114Z,44.08
2017-04-15T00:17:48.175Z,45.03
2017-04-15T00:18:47.252Z,46.78
2017-04-15T00:19:46.346Z,45.88
2017-04-15T00:20:45.430Z,48.67
2017-04-15T00:21:44.494Z,48.90
2017-04-15T00:22:43.598Z,50.93
2017-04-15T00:23:42.719Z,47.55
2017-04-15T00:24:41.777Z,47.92
2017-04-15T00:25:40.851Z,45.97
2017-04-15T00:26:39.942Z,42.12
2017-04-15T00:27:39.251Z,41.57
2017-04-15T00:28:38.319Z,45.32
2017-04-15T00:29:37.378Z,42.85
2017-04-15T00:30:36.447Z,46.05
2017-04-15T00:31:35.599Z,38.37
2017-04-15T00:32:34.669Z,41.93
2017-04-15T00:33:33.778Z,41.25
2017-04-15T00:34:32.855Z,45.75
2017-04-15T00:35:31.910Z,46.85
2017-04-15T00:36:30.983Z,49.52
2017-04-15T00:37:30.040Z,54.07
2017-04-15T00:38:29.270Z,40.67
2017-04-15T00:39:28.359Z,42.03
2017-04-15T00:40:27.418Z,40.17
2017-04-15T00:41:26.478Z,38.97
2017-04-15T00:42:25.714Z,39.50
2017-04-15T00:43:24.767Z,42.02
2017-04-15T00:44:23.853Z,43.73
2017-04-15T00:45:22.911Z,42.30
2017-04-15T00:46:22.711Z,48.67
2017-04-15T00:47:21.758Z,45.17
2017-04-15T00:48:20.831Z,50.10
2017-04-15T00:49:20.135Z,46.55
2017-04-15T00:50:19.199Z,45.73
2017-04-15T00:51:18.270Z,52.88
2017-04-15T00:52:17.338Z,46.38
2017-04-15T00:53:17.177Z,56.68
2017-04-15T00:54:16.239Z,52.07
2017-04-15T00:55:15.318Z,52.08
2017-04-15T00:56:14.395Z,58.73
2017-04-15T00:57:14.205Z,58.43
2017-04-15T00:58:13.278Z,55.18
2017-04-15T00:59:13.085Z,61.60
2017-04-15T01:00:12.542Z,49.45
2017-04-15T01:01:11.582Z,49.00
2017-04-15T01:02:10.634Z,46.62
2017-04-15T01:03:09.706Z,56.80
2017-04-15T01:04:08.778Z,47.03
2017-04-15T01:05:07.855Z,50.77
2017-04-15T01:06:06.938Z,51.77
2017-04-15T01:07:06.006Z,54.68
2017-04-15T01:08:05.065Z,55.00
2017-04-15T01:09:04.239Z,56.55
2017-04-15T01:10:03.346Z,52.87
2017-04-15T01:11:02.571Z,50.88
2017-04-15T01:12:01.637Z,54.42
2017-04-15T01:13:00.702Z,50.13
2017-04-15T01:14:00.047Z,47.88
2017-04-15T01:14:59.863Z,56.12
2017-04-15T01:15:58.927Z,47.48
2017-04-15T01:16:58.155Z,48.73
2017-04-15T01:17:57.210Z,46.62
2017-04-15T01:18:56.270Z,51.50
2017-04-15T01:19:55.322Z,51.62
2017-04-15T01:20:54.389Z,49.90
2017-04-15T01:21:53.620Z,52.48
2017-04-15T01:22:52.666Z,53.27
2017-04-15T01:23:51.770Z,59.08
2017-04-15T01:24:50.837Z,52.08
2017-04-15T01:25:49.897Z,53.57
2017-04-15T01:26:49.703Z,45.90
2017-04-15T01:27:48.907Z,53.25
2017-04-15T01:28:47.978Z,60.60
2017-04-15T01:29:47.766Z,48.48
2017-04-15T01:30:46.883Z,53.42
2017-04-15T01:31:45.942Z,57.45
2017-04-15T01:32:44.997Z,57.43
2017-04-15T01:33:44.076Z,55.60
2017-04-15T01:34:43.906Z,55.77
2017-04-15T01:35:42.978Z,54.83
2017-04-15T01:36:42.082Z,53.35
2017-04-15T01:37:41.136Z,55.97
2017-04-15T01:38:40.195Z,55.88
2017-04-15T01:39:39.270Z,61.88
2017-04-15T01:40:38.350Z,57.92
2017-04-15T01:41:37.430Z,58.50
2017-04-15T01:42:36.481Z,59.33
2017-04-15T01:43:35.569Z,49.62
2017-04-15T01:44:34.662Z,51.58
2017-04-15T01:45:33.746Z,57.40
2017-04-15T01:46:32.821Z,54.70
2017-04-15T01:47:31.883Z,57.88
2017-04-15T01:48:31.672Z,55.55
2017-04-15T01:49:30.749Z,53.05
2017-04-15T01:50:30.064Z,59.50
2017-04-15T01:51:29.109Z,58.28
2017-04-15T01:52:28.162Z,62.22
2017-04-15T01:53:27.963Z,59.50
2017-04-15T01:54:27.756Z,60.20
2017-04-15T01:55:26.826Z,52.18
2017-04-15T01:56:25.910Z,52.73
2017-04-15T01:57:24.974Z,52.42
2017-04-15T01:58:24.067Z,46.28
2017-04-15T01:59:23.126Z,49.35
2017-04-15T02:00:22.185Z,45.50
2017-04-15T02:01:21.630Z,48.15
2017-04-15T02:02:20.862Z,51.52
2017-04-15T02:03:20.658Z,48.72
2017-04-15T02:04:19.724Z,52.95
2017-04-15T02:05:18.778Z,52.32
2017-04-15T02:06:17.842Z,48.60
2017-04-15T02:07:16.930Z,46.45
2017-04-15T02:08:15.985Z,48.17
2017-04-15T02:09:15.807Z,47.22
2017-04-15T02:10:14.883Z,49.92
2017-04-15T02:11:13.934Z,44.52
2017-04-15T02:12:13.352Z,44.60
2017-04-15T02:13:12.398Z,46.12
2017-04-15T02:14:11.446Z,45.07
2017-04-15T02:15:10.533Z,48.25
2017-04-15T02:16:09.593Z,49.87
2017-04-15T02:17:09.407Z,52.60
2017-04-15T02:18:08.543Z,56.67
2017-04-15T02:19:07.610Z,54.53
2017-04-15T02:20:06.673Z,46.10
2017-04-15T02:21:05.742Z,45.35
2017-04-15T02:22:04.823Z,49.33
2017-04-15T02:23:04.798Z,40.20
2017-04-15T02:24:04.622Z,45.87
2017-04-15T02:25:03.782Z,44.33
2017-04-15T02:26:02.839Z,43.63
2017-04-15T02:27:01.910Z,46.77
2017-04-15T02:28:01.007Z,45.48
2017-04-15T02:29:00.094Z,52.27
2017-04-15T02:29:59.170Z,46.62
2017-04-15T02:30:58.228Z,44.68
2017-04-15T02:31:57.317Z,43.28
2017-04-15T02:32:56.391Z,45.37
2017-04-15T02:33:55.603Z,52.10
2017-04-15T02:34:54.707Z,43.38
2017-04-15T02:35:53.790Z,47.65
2017-04-15T02:36:52.874Z,41.93
2017-04-15T02:37:51.982Z,44.92
2017-04-15T02:38:51.046Z,43.87
2017-04-15T02:39:50.118Z,46.88
2017-04-15T02:40:49.186Z,45.37
2017-04-15T02:41:48.262Z,43.90
2017-04-15T02:42:47.655Z,47.50
2017-04-15T02:43:46.743Z,46.00
2017-04-15T02:44:45.949Z,53.05
2017-04-15T02:45:45.014Z,49.62
2017-04-15T02:46:44.099Z,51.58
2017-04-15T02:47:43.165Z,44.83
2017-04-15T02:48:42.986Z,47.58
2017-04-15T02:49:42.043Z,59.60
2017-04-15T02:50:41.110Z,56.95
2017-04-15T02:51:40.170Z,56.70
2017-04-15T02:52:39.226Z,59.72
2017-04-15T02:53:38.294Z,52.57
2017-04-15T02:54:38.081Z,55.58
2017-04-15T02:55:37.550Z,49.47
2017-04-15T02:56:36.619Z,51.25
2017-04-15T02:57:35.675Z,53.87
2017-04-15T02:58:34.730Z,50.08
2017-04-15T02:59:33.782Z,53.95
2017-04-15T03:00:32.876Z,58.20
2017-04-15T03:01:32.158Z,62.35
2017-04-15T03:02:31.224Z,54.20
2017-04-15T03:03:30.290Z,56.80
2017-04-15T03:04:29.358Z,63.58
2017-04-15T03:05:29.157Z,62.08
2017-04-15T03:06:28.243Z,57.07
2017-04-15T03:07:27.450Z,60.82
2017-04-15T03:08:26.509Z,52.70
2017-04-15T03:09:26.302Z,62.53
2017-04-15T03:10:25.351Z,59.50
2017-04-15T03:11:24.411Z,61.77
2017-04-15T03:12:23.469Z,67.13
2017-04-15T03:13:22.534Z,61.85
2017-04-15T03:14:21.618Z,60.62
2017-04-15T03:15:20.667Z,56.93
2017-04-15T03:16:19.713Z,50.25
2017-04-15T03:17:18.779Z,51.10
2017-04-15T03:18:18.613Z,54.47
2017-04-15T03:19:17.731Z,49.28
2017-04-15T03:20:16.806Z,51.02
2017-04-15T03:21:15.891Z,48.15
2017-04-15T03:22:14.982Z,55.87
2017-04-15T03:23:14.033Z,61.05
2017-04-15T03:24:13.371Z,52.18
2017-04-15T03:25:12.423Z,59.43
2017-04-15T03:26:11.483Z,70.90
2017-04-15T03:27:10.570Z,64.07
2017-04-15T03:28:09.615Z,63.05
2017-04-15T03:29:08.694Z,68.32
2017-04-15T03:30:07.827Z,58.87
2017-04-15T03:31:07.131Z,63.52
2017-04-15T03:32:06.219Z,68.97
2017-04-15T03:33:05.282Z,66.23
2017-04-15T03:34:04.373Z,66.12
2017-04-15T03:35:03.703Z,65.77
2017-04-15T03:36:02.767Z,62.63
2017-04-15T03:37:01.828Z,56.17
2017-04-15T03:38:01.379Z,51.40
2017-04-15T03:39:00.434Z,59.38
2017-04-15T03:39:59.491Z,60.63
2017-04-15T03:40:58.581Z,59.60
2017-04-15T03:41:57.695Z,49.93
2017-04-15T03:42:56.745Z,56.95
2017-04-15T03:43:56.546Z,58.73
2017-04-15T03:44:56.450Z,58.97
2017-04-15T03:45:55.668Z,55.75
2017-04-15T03:46:54.750Z,59.48
2017-04-15T03:47:53.838Z,47.60
2017-04-15T03:48:52.902Z,54.83
2017-04-15T03:49:51.967Z,48.52
2017-04-15T03:50:51.778Z,54.07
2017-04-15T03:51:50.893Z,54.07
2017-04-15T03:52:49.950Z,50.30
2017-04-15T03:53:49.022Z,54.52
2017-04-15T03:54:48.079Z,49.97
2017-04-15T03:55:47.134Z,48.42
2017-04-15T03:56:46.363Z,49.63
2017-04-15T03:57:45.435Z,51.55
2017-04-15T03:58:44.487Z,46.50
2017-04-15T03:59:43.546Z,54.43
2017-04-15T04:00:42.605Z,61.97
2017-04-15T04:01:41.669Z,57.87
2017-04-15T04:02:41.486Z,45.18
2017-04-15T04:03:40.566Z,54.08
2017-04-15T04:04:39.654Z,49.87
2017-04-15T04:05:38.723Z,52.93
2017-04-15T04:06:37.810Z,55.28
2017-04-15T04:07:37.407Z,50.12
2017-04-15T04:08:36.469Z,56.20
2017-04-15T04:09:35.526Z,57.38
2017-04-15T04:10:34.599Z,52.95
2017-04-15T04:11:34.401Z,54.48
2017-04-15T04:12:34.215Z,51.77
2017-04-15T04:13:33.329Z,54.65
2017-04-15T04:14:32.396Z,53.62
2017-04-15T04:15:31.477Z,48.62
2017-04-15T04:16:30.543Z,52.60
2017-04-15T04:17:29.627Z,52.48
2017-04-15T04:18:28.830Z,51.67
2017-04-15T04:19:27.903Z,56.95
2017-04-15T04:20:26.970Z,49.03
2017-04-15T04:21:26.034Z,55.12
2017-04-15T04:22:25.139Z,51.93
2017-04-15T04:23:24.203Z,49.07
2017-04-15T04:24:23.295Z,53.30
2017-04-15T04:25:22.350Z,49.58
2017-04-15T04:26:21.410Z,53.27
2017-04-15T04:27:20.458Z,52.63
2017-04-15T04:28:19.523Z,52.37
2017-04-15T04:29:18.766Z,51.73
2017-04-15T04:30:17.822Z,53.38
2017-04-15T04:31:16.885Z,56.03
2017-04-15T04:32:15.954Z,52.30
2017-04-15T04:33:15.043Z,56.10
2017-04-15T04:34:14.099Z,49.88
2017-04-15T04:35:13.211Z,55.67
2017-04-15T04:36:12.322Z,59.40
2017-04-15T04:37:11.381Z,58.77
2017-04-15T04:38:10.443Z,61.75
2017-04-15T04:39:09.539Z,50.43
2017-04-15T04:40:08.858Z,58.55
2017-04-15T04:41:07.926Z,51.78
2017-04-15T04:42:07.032Z,49.77
2017-04-15T04:43:06.095Z,57.52
2017-04-15T04:44:05.418Z,63.58
2017-04-15T04:45:04.470Z,51.83
2017-04-15T04:46:03.568Z,62.27
2017-04-15T04:47:02.642Z,52.48
2017-04-15T04:48:01.745Z,55.25
2017-04-15T04:49:00.829Z,53.43
2017-04-15T04:49:59.894Z,54.68
2017-04-15T04:50:59.102Z,50.75
2017-04-15T04:51:58.170Z,53.25
2017-04-15T04:52:57.227Z,59.08
2017-04-15T04:53:56.306Z,57.17
2017-04-15T04:54:55.462Z,59.98
2017-04-15T04:55:55.479Z,58.53
2017-04-15T04:56:55.318Z,60.95
2017-04-15T04:57:54.395Z,56.53
2017-04-15T04:58:53.481Z,61.25
2017-04-15T04:59:52.586Z,55.92
2017-04-15T05:00:52.394Z,59.98
2017-04-15T05:01:51.857Z,54.88
2017-04-15T05:02:50.962Z,57.47
2017-04-15T05:03:50.027Z,52.90
2017-04-15T05:04:49.092Z,54.23
2017-04-15T05:05:48.148Z,52.07
2017-04-15T05:06:47.218Z,51.40
2017-04-15T05:07:46.497Z,64.77
2017-04-15T05:08:45.564Z,57.45
2017-04-15T05:09:44.630Z,56.20
2017-04-15T05:10:43.714Z,53.03
2017-04-15T05:11:42.778Z,52.43
2017-04-15T05:12:41.847Z,46.87
2017-04-15T05:13:40.931Z,57.83
2017-04-15T05:14:40.105Z,57.42
2017-04-15T05:15:39.546Z,56.83
2017-04-15T05:16:38.603Z,50.87
2017-04-15T05:17:37.661Z,54.60
2017-04-15T05:18:37.059Z,51.75
2017-04-15T05:19:36.194Z,49.35
2017-04-15T05:20:35.250Z,55.75
2017-04-15T05:21:35.050Z,53.68
2017-04-15T05:22:34.182Z,50.13
2017-04-15T05:23:33.234Z,51.10
2017-04-15T05:24:32.326Z,50.17
2017-04-15T05:25:31.386Z,53.48
2017-04-15T05:26:30.453Z,53.62
2017-04-15T05:27:29.529Z,55.93
2017-04-15T05:28:28.597Z,55.42
2017-04-15T05:29:27.843Z,59.53
2017-04-15T05:30:27.637Z,51.95
2017-04-15T05:31:26.714Z,53.42
2017-04-15T05:32:25.786Z,61.92
2017-04-15T05:33:24.874Z,64.43
2017-04-15T05:34:23.933Z,61.45
2017-04-15T05:35:23.014Z,62.03
2017-04-15T05:36:22.110Z,57.60
2017-04-15T05:37:21.168Z,46.82
2017-04-15T05:38:20.242Z,55.45
2017-04-15T05:39:19.295Z,51.67
2017-04-15T05:40:19.262Z,50.23
2017-04-15T05:41:18.338Z,55.10
2017-04-15T05:42:17.407Z,53.60
2017-04-15T05:43:16.463Z,50.45
2017-04-15T05:44:16.306Z,48.25
2017-04-15T05:45:15.369Z,46.67
2017-04-15T05:46:14.451Z,54.35
2017-04-15T05:47:13.519Z,47.37
2017-04-15T05:48:12.594Z,43.48
2017-04-15T05:49:11.679Z,45.78
2017-04-15T05:50:10.754Z,45.28
2017-04-15T05:51:10.851Z,50.58
2017-04-15T05:52:09.946Z,44.15
2017-04-15T05:53:09.019Z,47.17
2017-04-15T05:54:08.111Z,49.33
2017-04-15T05:55:07.168Z,48.28
2017-04-15T05:56:06.243Z,55.10
2017-04-15T05:57:05.328Z,52.60
2017-04-15T05:58:04.386Z,51.10
2017-04-15T05:59:03.459Z,50.78
2017-04-15T06:00:02.542Z,54.00
2017-04-15T06:01:02.363Z,49.98
2017-04-15T06:02:08.239Z,55.75
2017-04-15T06:03:07.291Z,56.93
2017-04-15T06:04:06.348Z,52.15
2017-04-15T06:05:05.519Z,54.48
2017-04-15T06:06:04.603Z,52.73
2017-04-15T06:07:03.685Z,57.22
2017-04-15T06:08:03.041Z,50.45
2017-04-15T06:09:02.121Z,46.43
2017-04-15T06:10:01.188Z,49.65
2017-04-15T06:11:00.262Z,49.18
2017-04-15T06:12:00.304Z,50.20
2017-04-15T06:12:59.630Z,46.43
2017-04-15T06:13:58.682Z,44.02
2017-04-15T06:14:57.747Z,48.03
2017-04-15T06:15:57.138Z,41.10
2017-04-15T06:16:56.246Z,51.68
2017-04-15T06:17:55.315Z,46.90
2017-04-15T06:18:54.410Z,48.48
2017-04-15T06:19:53.477Z,48.33
2017-04-15T06:20:52.552Z,48.15
2017-04-15T06:21:52.362Z,50.08
2017-04-15T06:22:51.434Z,46.03
2017-04-15T06:23:50.816Z,45.07
2017-04-15T06:24:50.988Z,44.15
2017-04-15T06:25:50.063Z,44.67
2017-04-15T06:26:49.126Z,45.20
2017-04-15T06:27:48.194Z,42.73
2017-04-15T06:28:47.255Z,44.27
2017-04-15T06:29:46.508Z,45.97
2017-04-15T06:30:45.652Z,42.67
2017-04-15T06:31:44.721Z,44.78
2017-04-15T06:32:43.799Z,42.83
2017-04-15T06:33:42.906Z,42.57
2017-04-15T06:34:42.285Z,48.97
2017-04-15T06:35:41.366Z,48.75
2017-04-15T06:36:40.446Z,49.75
2017-04-15T06:37:39.515Z,53.98
2017-04-15T06:38:38.646Z,49.73
2017-04-15T06:39:37.743Z,53.50
2017-04-15T06:40:37.071Z,46.78
2017-04-15T06:41:36.161Z,50.15
2017-04-15T06:42:35.247Z,55.38
2017-04-15T06:43:34.337Z,52.23
2017-04-15T06:44:33.459Z,53.17
2017-04-15T06:45:33.271Z,44.18
2017-04-15T06:46:32.418Z,51.58
2017-04-15T06:47:31.687Z,55.63
2017-04-15T06:48:30.807Z,53.97
2017-04-15T06:49:30.661Z,57.97
2017-04-15T06:50:29.719Z,49.70
2017-04-15T06:51:29.374Z,47.78
2017-04-15T06:52:28.445Z,54.97
2017-04-15T06:53:27.518Z,51.33
2017-04-15T06:54:26.603Z,53.38
2017-04-15T06:55:25.666Z,53.47
2017-04-15T06:56:24.758Z,49.05
2017-04-15T06:57:23.876Z,46.83
2017-04-15T06:58:22.961Z,52.37
2017-04-15T06:59:22.072Z,47.60
2017-04-15T07:00:21.175Z,47.95
2017-04-15T07:01:20.254Z,54.28
2017-04-15T07:02:20.230Z,42.80
2017-04-15T07:03:19.332Z,48.47
2017-04-15T07:04:18.748Z,49.58
2017-04-15T07:05:18.261Z,52.23
2017-04-15T07:06:17.384Z,55.33
2017-04-15T07:07:16.459Z,51.30
2017-04-15T07:08:15.559Z,48.28
2017-04-15T07:09:14.650Z,51.30
2017-04-15T07:10:13.738Z,48.55
2017-04-15T07:11:13.569Z,52.60
2017-04-15T07:12:19.569Z,46.35
2017-04-15T07:13:18.855Z,44.55
2017-04-15T07:14:17.934Z,48.20
2017-04-15T07:15:17.042Z,42.82
2017-04-15T07:16:16.108Z,50.12
2017-04-15T07:17:15.191Z,47.35
2017-04-15T07:18:14.287Z,49.60
2017-04-15T07:19:13.443Z,50.10
2017-04-15T07:20:12.521Z,49.05
2017-04-15T07:21:11.611Z,43.13
2017-04-15T07:22:10.752Z,43.58
2017-04-15T07:23:09.843Z,46.50
2017-04-15T07:24:09.520Z,49.58
2017-04-15T07:25:08.631Z,43.58
2017-04-15T07:26:08.470Z,43.22
2017-04-15T07:27:07.554Z,41.60
2017-04-15T07:28:06.638Z,43.68
2017-04-15T07:29:05.736Z,49.38
2017-04-15T07:30:04.848Z,47.80
2017-04-15T07:31:04.176Z,46.00
2017-04-15T07:32:03.624Z,50.83
2017-04-15T07:33:02.750Z,54.58
2017-04-15T07:34:01.871Z,56.52
2017-04-15T07:35:01.394Z,51.85
2017-04-15T07:36:00.859Z,54.67
2017-04-15T07:36:59.957Z,49.60
2017-04-15T07:37:59.051Z,50.85
2017-04-15T07:38:58.906Z,47.45
2017-04-15T07:39:58.006Z,47.23
2017-04-15T07:40:57.339Z,49.93
2017-04-15T07:41:56.417Z,43.82
2017-04-15T07:42:55.511Z,45.40
2017-04-15T07:43:54.570Z,49.35
2017-04-15T07:44:53.678Z,46.55
2017-04-15T07:45:52.758Z,45.55
2017-04-15T07:46:51.860Z,47.07
2017-04-15T07:47:50.971Z,47.57
2017-04-15T07:48:50.772Z,45.78
2017-04-15T07:49:49.851Z,48.33
2017-04-15T07:50:49.666Z,56.75
2017-04-15T07:51:48.807Z,58.87
2017-04-15T07:52:47.922Z,57.28
2017-04-15T07:53:47.739Z,57.57
2017-04-15T07:54:46.822Z,56.87
2017-04-15T07:55:45.902Z,56.97
2017-04-15T07:56:45.218Z,53.37
2017-04-15T07:57:44.750Z,51.83
2017-04-15T07:58:43.832Z,50.53
2017-04-15T07:59:42.906Z,50.35
2017-04-15T08:00:42.023Z,54.42
2017-04-15T08:01:41.865Z,56.35
2017-04-15T08:02:40.935Z,54.78
2017-04-15T08:03:40.040Z,47.23
2017-04-15T08:04:39.145Z,58.87
2017-04-15T08:05:38.535Z,60.95
2017-04-15T08:06:37.611Z,55.85
2017-04-15T08:07:36.707Z,57.45
2017-04-15T08:08:36.028Z,49.70
2017-04-15T08:09:35.859Z,53.60
2017-04-15T08:10:34.942Z,53.95
2017-04-15T08:11:34.070Z,61.63
2017-04-15T08:12:33.154Z,53.20
2017-04-15T08:13:32.248Z,54.27
2017-04-15T08:14:31.347Z,56.18
2017-04-15T08:15:30.444Z,57.30
2017-04-15T08:16:29.534Z,53.27
2017-04-15T08:17:28.635Z,54.72
2017-04-15T08:18:27.771Z,51.82
2017-04-15T08:19:27.017Z,50.18
2017-04-15T08:20:26.110Z,45.72
2017-04-15T08:21:25.195Z,48.57
2017-04-15T08:22:24.282Z,57.52
2017-04-15T08:23:23.430Z,54.50
2017-04-15T08:24:22.519Z,53.05
2017-04-15T08:25:21.654Z,56.93
2017-04-15T08:26:20.758Z,50.35
2017-04-15T08:27:19.882Z,51.82
2017-04-15T08:28:19.735Z,50.93
2017-04-15T08:29:18.865Z,53.85
2017-04-15T08:30:18.875Z,53.32
2017-04-15T08:31:18.031Z,50.48
2017-04-15T08:32:17.124Z,46.82
2017-04-15T08:33:16.197Z,48.35
2017-04-15T08:34:15.290Z,47.73
2017-04-15T08:35:14.370Z,59.73
2017-04-15T08:36:13.762Z,56.02
2017-04-15T08:37:12.862Z,57.73
2017-04-15T08:38:11.961Z,49.18
2017-04-15T08:39:11.802Z,59.28
2017-04-15T08:40:10.911Z,54.52
2017-04-15T08:41:10.142Z,52.62
2017-04-15T08:42:09.978Z,63.93
2017-04-15T08:43:09.082Z,55.05
2017-04-15T08:44:08.164Z,53.27
2017-04-15T08:45:07.270Z,41.62
2017-04-15T08:46:06.355Z,47.32
2017-04-15T08:47:05.470Z,49.62
2017-04-15T08:48:05.311Z,48.10
2017-04-15T08:49:04.435Z,44.55
2017-04-15T08:50:03.594Z,57.40
2017-04-15T08:51:02.706Z,47.42
2017-04-15T08:52:01.950Z,44.83
2017-04-15T08:53:01.042Z,49.73
2017-04-15T08:54:00.131Z,52.62
2017-04-15T08:54:59.250Z,45.57
2017-04-15T08:55:58.359Z,45.68
2017-04-15T08:56:57.451Z,40.52
2017-04-15T08:57:56.895Z,47.02
2017-04-15T08:58:55.985Z,48.82
2017-04-15T08:59:55.083Z,43.98
2017-04-15T09:00:54.169Z,46.68
2017-04-15T09:01:53.255Z,46.02
2017-04-15T09:02:52.514Z,42.63
2017-04-15T09:03:51.632Z,44.35
2017-04-15T09:04:50.702Z,42.67
2017-04-15T09:05:49.783Z,40.08
2017-04-15T09:06:48.870Z,44.72
2017-04-15T09:07:47.948Z,43.42
2017-04-15T09:08:47.063Z,41.22
2017-04-15T09:09:46.174Z,42.68
2017-04-15T09:10:45.570Z,40.52
2017-04-15T09:11:44.698Z,40.65
2017-04-15T09:12:43.787Z,44.00
2017-04-15T09:13:43.096Z,38.43
2017-04-15T09:14:42.210Z,37.03
2017-04-15T09:15:42.141Z,36.37
2017-04-15T09:16:41.240Z,39.02
2017-04-15T09:17:40.619Z,39.33
2017-04-15T09:18:39.733Z,34.78
2017-04-15T09:19:38.844Z,33.53
2017-04-15T09:20:37.951Z,34.23
2017-04-15T09:21:37.798Z,39.35
2017-04-15T09:22:36.897Z,40.00
2017-04-15T09:23:35.978Z,36.97
2017-04-15T09:24:35.231Z,36.88
2017-04-15T09:25:34.338Z,34.97
2017-04-15T09:26:33.460Z,31.15
2017-04-15T09:27:32.559Z,37.18
2017-04-15T09:28:32.717Z,36.97
2017-04-15T09:29:31.822Z,34.48
2017-04-15T09:30:31.195Z,38.33
2017-04-15T09:31:30.303Z,37.65
2017-04-15T09:32:29.507Z,39.02
2017-04-15T09:33:28.594Z,34.85
2017-04-15T09:34:27.695Z,30.55
2017-04-15T09:35:27.295Z,33.72
2017-04-15T09:36:26.421Z,33.50
2017-04-15T09:37:25.527Z,35.30
2017-04-15T09:38:24.615Z,34.87
2017-04-15T09:39:23.704Z,40.70
2017-04-15T09:40:22.799Z,35.40
2017-04-15T09:41:22.030Z,32.18
2017-04-15T09:42:21.114Z,31.83
2017-04-15T09:43:20.218Z,31.67
2017-04-15T09:44:19.331Z,26.85
2017-04-15T09:45:18.418Z,26.07
2017-04-15T09:46:17.550Z,26.25
2017-04-15T09:47:16.794Z,24.12
2017-04-15T09:48:15.867Z,24.82
2017-04-15T09:49:14.960Z,28.53
2017-04-15T09:50:14.079Z,31.23
2017-04-15T09:51:13.942Z,35.28
2017-04-15T09:52:13.063Z,34.78
2017-04-15T09:53:12.151Z,40.53
2017-04-15T09:54:11.230Z,42.68
2017-04-15T09:55:10.317Z,37.08
2017-04-15T09:56:09.453Z,49.32
2017-04-15T09:57:08.578Z,37.78
2017-04-15T09:58:07.671Z,36.60
2017-04-15T09:59:06.783Z,40.12
2017-04-15T10:00:05.893Z,34.08
2017-04-15T10:01:05.135Z,30.50
2017-04-15T10:02:04.243Z,28.30
2017-04-15T10:03:03.316Z,32.00
2017-04-15T10:04:02.559Z,35.98
2017-04-15T10:05:01.670Z,38.93
2017-04-15T10:06:00.748Z,44.12
2017-04-15T10:06:59.822Z,34.67
2017-04-15T10:07:58.909Z,34.08
2017-04-15T10:08:57.979Z,38.45
2017-04-15T10:09:57.846Z,33.05
2017-04-15T10:10:56.934Z,32.70
2017-04-15T10:11:56.026Z,34.87
2017-04-15T10:12:55.320Z,39.43
2017-04-15T10:13:54.397Z,39.73
2017-04-15T10:14:53.636Z,44.70
2017-04-15T10:15:52.722Z,45.15
2017-04-15T10:16:51.822Z,44.17
2017-04-15T10:17:50.948Z,54.43
2017-04-15T10:18:50.058Z,53.37
2017-04-15T10:20:55.831Z,42.82
2017-04-15T10:21:55.163Z,41.57
2017-04-15T10:22:54.256Z,45.75
2017-04-15T10:23:53.370Z,44.72
2017-04-15T10:24:52.448Z,40.30
2017-04-15T10:25:51.960Z,45.08
2017-04-15T10:26:51.103Z,39.38
2017-04-15T10:27:50.304Z,38.33
2017-04-15T10:28:49.399Z,52.05
2017-04-15T10:29:48.511Z,50.15
2017-04-15T10:30:47.584Z,45.30
2017-04-15T10:31:46.668Z,44.62
2017-04-15T10:32:45.754Z,38.58
2017-04-15T10:33:44.839Z,55.43
2017-04-15T10:34:43.924Z,49.68
2017-04-15T10:35:43.006Z,48.38
2017-04-15T10:36:42.970Z,48.63
2017-04-15T10:37:42.051Z,50.00
2017-04-15T10:38:41.139Z,55.68
2017-04-15T10:39:40.203Z,47.27
2017-04-15T10:40:40.038Z,51.58
2017-04-15T10:41:39.110Z,32.48
2017-04-15T10:42:38.206Z,43.80
2017-04-15T10:43:37.286Z,37.27
2017-04-15T10:44:36.370Z,40.48
2017-04-15T10:45:35.462Z,29.47
2017-04-15T10:46:34.526Z,24.67
2017-04-15T10:47:34.285Z,26.82
2017-04-15T10:48:33.335Z,28.60
2017-04-15T10:49:32.674Z,25.77
2017-04-15T10:50:32.010Z,23.68
2017-04-15T10:51:31.086Z,17.40
2017-04-15T10:52:30.150Z,23.22
2017-04-15T10:53:29.987Z,18.30
2017-04-15T10:54:29.061Z,24.80
2017-04-15T10:55:28.458Z,23.80
2017-04-15T10:56:27.562Z,20.78
2017-04-15T10:57:26.642Z,27.25
2017-04-15T10:58:25.955Z,33.73
2017-04-15T10:59:25.036Z,29.65
2017-04-15T11:00:24.090Z,29.13
2017-04-15T11:01:23.154Z,23.27
2017-04-15T11:02:22.262Z,29.68
2017-04-15T11:03:21.376Z,30.73
2017-04-15T11:04:20.511Z,21.68
2017-04-15T11:05:19.572Z,26.68
2017-04-15T11:06:18.635Z,31.82
2017-04-15T11:07:17.983Z,34.23
2017-04-15T11:08:18.184Z,33.23
2017-04-15T11:09:17.424Z,24.78
2017-04-15T11:10:16.529Z,29.33
2017-04-15T11:11:15.607Z,36.13
2017-04-15T11:12:14.789Z,24.65
2017-04-15T11:13:13.878Z,21.10
2017-04-15T11:14:12.994Z,26.25
2017-04-15T11:15:12.962Z,32.27
2017-04-15T11:16:12.053Z,30.98
2017-04-15T11:17:11.154Z,28.48
2017-04-15T11:18:10.222Z,36.18
2017-04-15T11:19:09.311Z,28.53
2017-04-15T11:20:08.411Z,24.63
2017-04-15T11:21:07.496Z,29.78
2017-04-15T11:22:06.666Z,34.72
2017-04-15T11:23:05.750Z,23.35
2017-04-15T11:24:04.822Z,27.97
2017-04-15T11:25:03.902Z,31.12
2017-04-15T11:26:02.994Z,23.62
2017-04-15T11:27:02.091Z,26.18
2017-04-15T11:28:01.155Z,24.93
2017-04-15T11:29:00.214Z,29.83
2017-04-15T11:29:59.282Z,24.73
2017-04-15T11:30:58.422Z,27.07
2017-04-15T11:31:57.542Z,27.85
2017-04-15T11:32:57.387Z,25.68
2017-04-15T11:33:56.458Z,24.75
2017-04-15T11:34:55.532Z,28.37
2017-04-15T11:35:54.612Z,28.70
2017-04-15T11:36:53.699Z,26.57
2017-04-15T11:37:52.914Z,33.08
2017-04-15T11:38:52.003Z,21.88
2017-04-15T11:39:51.083Z,28.60
2017-04-15T11:40:50.158Z,45.47
2017-04-15T11:41:49.232Z,38.78
2017-04-15T11:42:48.435Z,28.82
2017-04-15T11:43:47.556Z,23.88
2017-04-15T11:44:46.668Z,25.00
2017-04-15T11:45:46.490Z,24.95
2017-04-15T11:46:45.554Z,25.92
2017-04-15T11:47:44.640Z,31.25
2017-04-15T11:48:44.082Z,23.82
2017-04-15T11:49:43.170Z,19.53
2017-04-15T11:50:42.226Z,19.05
2017-04-15T11:51:41.290Z,23.58
2017-04-15T11:52:41.230Z,20.72
2017-04-15T11:53:40.307Z,25.35
2017-04-15T11:54:39.414Z,18.30
2017-04-15T11:55:38.486Z,27.08
2017-04-15T11:56:37.754Z,22.90
2017-04-15T11:57:36.896Z,16.25
2017-04-15T11:58:35.976Z,15.67
2017-04-15T11:59:35.354Z,15.42
2017-04-15T12:00:34.454Z,13.87
2017-04-15T12:01:33.526Z,17.02
2017-04-15T12:02:32.590Z,26.25
2017-04-15T12:03:31.715Z,26.28
2017-04-15T12:04:30.793Z,19.60
2017-04-15T12:05:30.184Z,19.90
2017-04-15T12:06:29.254Z,16.70
2017-04-15T12:07:28.320Z,22.52
2017-04-15T12:08:27.396Z,20.45
2017-04-15T12:09:26.465Z,16.80
2017-04-15T12:10:26.279Z,19.32
2017-04-15T12:11:25.534Z,24.27
2017-04-15T12:12:24.610Z,24.02
2017-04-15T12:13:23.732Z,29.95
2017-04-15T12:14:22.809Z,22.90
2017-04-15T12:15:21.879Z,23.57
2017-04-15T12:16:21.702Z,26.17
2017-04-15T12:17:20.331Z,17.80
2017-04-15T12:18:19.679Z,19.83
2017-04-15T12:19:18.806Z,18.23
2017-04-15T12:20:17.902Z,21.82
2017-04-15T12:21:16.979Z,16.38
2017-04-15T12:22:16.066Z,18.55
2017-04-15T12:23:15.197Z,16.58
2017-04-15T12:24:14.690Z,15.95
2017-04-15T12:25:13.803Z,13.98
2017-04-15T12:26:12.874Z,14.12
2017-04-15T12:27:11.958Z,12.40
2017-04-15T12:28:11.029Z,17.45
2017-04-15T12:29:10.150Z,16.95
2017-04-15T12:30:09.961Z,16.05
2017-04-15T12:31:09.043Z,17.57
2017-04-15T12:32:08.158Z,25.13
2017-04-15T12:33:07.238Z,17.27
2017-04-15T12:34:06.330Z,16.77
2017-04-15T12:35:05.479Z,13.10
2017-04-15T12:36:05.303Z,14.28
2017-04-15T12:37:04.392Z,13.57
2017-04-15T12:38:03.478Z,15.02
2017-04-15T12:39:02.633Z,13.72
2017-04-15T12:40:01.691Z,12.03
2017-04-15T12:41:00.886Z,8.37
2017-04-15T12:41:59.967Z,12.57
2017-04-15T12:42:59.044Z,10.98